Time;durP1;ratioP1;P1;durP2;ratioP2;P2;SDS_P1;SDS_P2;PMS_P1;PMS_P2;Temp;Humidity;BMP_temperature;BMP_pressure;BME280_temperature;BME280_humidity;BME280_pressure;Samples;Min_cycle;Max_cycle;Signal;HPM_P1;HPM_P2
2023/08/16 00:01:24;;;;;;;9.32;4.32;;;;;;;-147.65;100.00;57646.63;10520100;28;20039;-80
2023/08/16 00:06:25;;;;;;;8.18;4.07;;;;;;;-147.65;100.00;57646.63;10521522;28;20038;-80
2023/08/16 00:11:26;;;;;;;7.93;3.95;;;;;;;-147.65;100.00;57646.63;10521343;28;20028;-80
2023/08/16 00:16:26;;;;;;;8.82;6.22;;;;;;;-147.65;100.00;57646.63;10511193;28;20036;-79
2023/08/16 00:21:27;;;;;;;14.07;5.10;;;;;;;-147.65;100.00;57646.63;10521481;28;20154;-79
2023/08/16 00:26:27;;;;;;;7.15;4.85;;;;;;;-147.65;100.00;57646.63;10519716;28;20395;-80
2023/08/16 00:31:28;;;;;;;9.15;3.65;;;;;;;-147.65;100.00;57646.63;10503803;28;20043;-79
2023/08/16 00:36:28;;;;;;;12.20;4.53;;;;;;;-147.65;100.00;57646.63;10522008;28;20093;-79
2023/08/16 00:41:29;;;;;;;8.68;5.70;;;;;;;-147.65;100.00;57646.63;10520372;28;20134;-79
2023/08/16 00:46:30;;;;;;;8.70;4.85;;;;;;;-147.65;100.00;57646.63;10517643;28;20524;-79
2023/08/16 00:51:31;;;;;;;7.03;4.50;;;;;;;-147.65;100.00;57646.63;10521555;28;20064;-80
2023/08/16 00:56:31;;;;;;;7.40;4.30;;;;;;;-147.65;100.00;57646.63;10529295;28;20039;-79
2023/08/16 01:01:32;;;;;;;12.73;4.38;;;;;;;-147.65;100.00;57646.63;10525227;28;20399;-81
2023/08/16 01:06:33;;;;;;;7.85;3.70;;;;;;;-147.65;100.00;57646.63;10528712;28;20493;-79
2023/08/16 01:11:43;;;;;;;7.32;4.20;;;;;;;-147.65;100.00;57646.63;10525299;28;20044;-79
2023/08/16 01:16:44;;;;;;;6.55;4.38;;;;;;;-147.65;100.00;57646.63;10503020;28;20042;-78
2023/08/16 01:22:05;;;;;;;9.88;5.22;;;;;;;-147.65;100.00;57646.63;10526544;28;20059;-77
2023/08/16 01:27:05;;;;;;;25.52;12.63;;;;;;;-147.65;100.00;57646.63;10526607;28;20048;-76
2023/08/16 01:32:06;;;;;;;18.95;8.75;;;;;;;-147.65;100.00;57646.63;10510581;28;20066;-77
2023/08/16 01:37:06;;;;;;;15.60;10.05;;;;;;;-147.65;100.00;57646.63;10526852;28;20041;-75
2023/08/16 01:42:07;;;;;;;23.70;11.77;;;;;;;-147.65;100.00;57646.63;10529202;28;20392;-76
2023/08/16 01:47:08;;;;;;;16.45;11.65;;;;;;;-147.65;100.00;57646.63;10520597;28;20490;-76
2023/08/16 01:52:08;;;;;;;14.25;12.05;;;;;;;-147.65;100.00;57646.63;10523472;28;20063;-76
2023/08/16 01:57:09;;;;;;;14.85;10.25;;;;;;;-147.65;100.00;57646.63;10511379;28;20032;-76
2023/08/16 02:02:09;;;;;;;17.10;12.27;;;;;;;-147.65;100.00;57646.63;10524099;28;20036;-76
2023/08/16 02:07:10;;;;;;;15.45;12.23;;;;;;;-147.65;100.00;57646.63;10526584;28;20036;-76
2023/08/16 02:18:27;;;;;;;22.63;12.80;;;;;;;-147.65;100.00;57646.63;10507747;28;20036;-77
2023/08/16 02:23:28;;;;;;;21.08;15.80;;;;;;;-147.65;100.00;57646.63;10522713;28;20059;-77
2023/08/16 02:28:29;;;;;;;21.88;16.33;;;;;;;-147.65;100.00;57646.63;10521834;28;20054;-76
2023/08/16 02:33:29;;;;;;;21.73;15.57;;;;;;;-147.65;100.00;57646.63;10526176;28;20089;-76
2023/08/16 02:38:30;;;;;;;20.33;15.85;;;;;;;-147.65;100.00;57646.63;10524028;28;20622;-76
2023/08/16 02:43:31;;;;;;;25.98;20.08;;;;;;;-147.65;100.00;57646.63;10524446;28;20124;-76
2023/08/16 02:48:31;;;;;;;19.25;13.55;;;;;;;-147.65;100.00;57646.63;10524602;28;20496;-77
2023/08/16 02:53:32;;;;;;;21.83;15.70;;;;;;;-147.65;100.00;57646.63;10525261;28;20044;-76
2023/08/16 02:58:32;;;;;;;21.73;16.52;;;;;;;-147.65;100.00;57646.63;10522503;28;20472;-76
2023/08/16 03:03:33;;;;;;;28.77;19.90;;;;;;;-147.65;100.00;57646.63;10526610;28;20036;-77
2023/08/16 03:08:33;;;;;;;27.60;20.27;;;;;;;-147.65;100.00;57646.63;10510728;28;20119;-76
2023/08/16 03:13:34;;;;;;;27.48;18.10;;;;;;;-147.65;100.00;57646.63;10523361;28;20063;-76
2023/08/16 03:18:34;;;;;;;32.15;22.23;;;;;;;-147.65;100.00;57646.63;10523081;28;20040;-76
2023/08/16 03:23:35;;;;;;;27.98;20.92;;;;;;;-147.65;100.00;57646.63;10522857;28;20667;-76
2023/08/16 03:28:35;;;;;;;36.70;20.33;;;;;;;-147.65;100.00;57646.63;10521699;28;20085;-77
2023/08/16 03:33:36;;;;;;;32.55;21.83;;;;;;;-147.65;100.00;57646.63;10522181;28;20395;-77
2023/08/16 03:38:36;;;;;;;23.90;17.73;;;;;;;-147.65;100.00;57646.63;10522876;28;20169;-77
2023/08/16 03:43:37;;;;;;;27.25;21.23;;;;;;;-147.65;100.00;57646.63;10522891;28;20082;-77
2023/08/16 03:48:38;;;;;;;30.73;18.23;;;;;;;-147.65;100.00;57646.63;10517906;28;20058;-77
2023/08/16 03:53:39;;;;;;;23.00;17.25;;;;;;;-147.65;100.00;57646.63;10523625;28;20061;-77
2023/08/16 03:58:39;;;;;;;25.33;20.33;;;;;;;-147.65;100.00;57646.63;10524044;28;20544;-77
2023/08/16 04:03:40;;;;;;;29.40;19.65;;;;;;;-147.65;100.00;57646.63;10521800;28;20095;-77
2023/08/16 04:08:40;;;;;;;30.10;21.25;;;;;;;-147.65;100.00;57646.63;10521882;28;20032;-77
2023/08/16 04:13:41;;;;;;;27.00;20.50;;;;;;;-147.65;100.00;57646.63;10518423;28;20126;-77
2023/08/16 04:18:41;;;;;;;27.17;20.05;;;;;;;-147.65;100.00;57646.63;10516257;28;20403;-76
2023/08/16 04:23:42;;;;;;;32.42;23.15;;;;;;;-147.65;100.00;57646.63;10509599;28;20032;-76
2023/08/16 04:28:42;;;;;;;27.35;21.00;;;;;;;-147.65;100.00;57646.63;10521206;28;20032;-76
2023/08/16 04:33:43;;;;;;;28.95;19.92;;;;;;;-147.65;100.00;57646.63;10522150;28;20044;-76
2023/08/16 04:38:43;;;;;;;33.05;23.42;;;;;;;-147.65;100.00;57646.63;10521457;28;20063;-77
2023/08/16 04:43:44;;;;;;;27.98;21.65;;;;;;;-147.65;100.00;57646.63;10516976;28;20040;-76
2023/08/16 04:48:45;;;;;;;31.48;21.50;;;;;;;-147.65;100.00;57646.63;10521416;28;20040;-76
2023/08/16 04:53:46;;;;;;;32.28;24.23;;;;;;;-147.65;100.00;57646.63;10517265;28;20441;-77
2023/08/16 04:58:47;;;;;;;31.80;21.70;;;;;;;-147.65;100.00;57646.63;10519769;28;20036;-77
2023/08/16 05:03:50;;;;;;;32.50;20.95;;;;;;;-147.65;100.00;57646.63;10519760;28;20491;-77
2023/08/16 05:08:50;;;;;;;30.20;21.70;;;;;;;-147.65;100.00;57646.63;10516733;28;20476;-77
2023/08/16 05:13:51;;;;;;;30.13;21.90;;;;;;;-147.65;100.00;57646.63;10520717;28;20059;-77
2023/08/16 05:18:54;;;;;;;24.70;19.55;;;;;;;-147.65;100.00;57646.63;10519999;28;20391;-76
2023/08/16 05:23:55;;;;;;;28.60;22.75;;;;;;;-147.65;100.00;57646.63;10520199;28;20039;-77
2023/08/16 05:28:56;;;;;;;29.20;23.77;;;;;;;-147.65;100.00;57646.63;10520188;28;20032;-77
2023/08/16 05:33:56;;;;;;;22.73;17.92;;;;;;;-147.65;100.00;57646.63;10513053;28;20051;-75
2023/08/16 05:38:57;;;;;;;29.23;18.27;;;;;;;-147.65;100.00;57646.63;10507940;28;20097;-77
2023/08/16 05:43:58;;;;;;;20.73;15.68;;;;;;;-147.65;100.00;57646.63;10526786;28;20036;-77
2023/08/16 05:49:00;;;;;;;24.40;16.55;;;;;;;-147.65;100.00;57646.63;10525027;28;20036;-76
2023/08/16 05:54:02;;;;;;;22.02;15.65;;;;;;;-147.65;100.00;57646.63;10526737;28;20051;-77
2023/08/16 05:59:02;;;;;;;23.30;11.95;;;;;;;-147.65;100.00;57646.63;10477654;27;20470;-76
2023/08/16 06:04:03;;;;;;;20.05;13.07;;;;;;;-147.65;100.00;57646.63;10504458;28;20044;-76
2023/08/16 06:09:04;;;;;;;13.18;11.63;;;;;;;-147.65;100.00;57646.63;10502224;28;20032;-74
2023/08/16 06:14:04;;;;;;;18.98;15.13;;;;;;;-147.65;100.00;57646.63;10509965;28;20047;-75
2023/08/16 06:19:05;;;;;;;17.42;11.07;;;;;;;-147.65;100.00;57646.63;10520142;28;20040;-74
2023/08/16 06:24:08;;;;;;;18.67;12.48;;;;;;;-147.65;100.00;57646.63;10507121;28;20040;-75
2023/08/16 06:29:08;;;;;;;18.38;14.57;;;;;;;-147.65;100.00;57646.63;10529977;27;20109;-76
2023/08/16 06:34:09;;;;;;;17.67;11.35;;;;;;;-147.65;100.00;57646.63;10527856;28;20132;-75
2023/08/16 06:39:09;;;;;;;16.80;12.88;;;;;;;-147.65;100.00;57646.63;10516674;28;20100;-75
2023/08/16 06:44:10;;;;;;;14.73;9.10;;;;;;;-147.65;100.00;57646.63;10517201;28;20066;-75
2023/08/16 06:49:10;;;;;;;17.50;11.37;;;;;;;-147.65;100.00;57646.63;10516775;27;20037;-76
2023/08/16 06:54:12;;;;;;;15.77;10.10;;;;;;;-147.65;100.00;57646.63;10519117;28;20036;-77
2023/08/16 06:59:13;;;;;;;12.53;10.77;;;;;;;-147.65;100.00;57646.63;10514289;28;20115;-78
2023/08/16 07:04:13;;;;;;;12.30;9.50;;;;;;;-147.65;100.00;57646.63;10553772;27;20127;-78
2023/08/16 07:09:14;;;;;;;11.17;9.20;;;;;;;-147.65;100.00;57646.63;10521658;28;20494;-76
2023/08/16 07:14:14;;;;;;;12.63;9.50;;;;;;;-147.65;100.00;57646.63;10520141;28;20044;-78
2023/08/16 07:19:17;;;;;;;15.50;7.27;;;;;;;-147.65;100.00;57646.63;10526024;28;20058;-79
2023/08/16 07:24:18;;;;;;;11.85;8.63;;;;;;;-147.65;100.00;57646.63;10492740;28;20043;-77
2023/08/16 07:29:19;;;;;;;10.17;7.23;;;;;;;-147.65;100.00;57646.63;10522679;28;20036;-77
2023/08/16 07:34:19;;;;;;;12.50;6.97;;;;;;;-147.65;100.00;57646.63;10524058;28;20074;-77
2023/08/16 07:39:20;;;;;;;12.40;7.87;;;;;;;-147.65;100.00;57646.63;10525485;28;20055;-78
2023/08/16 07:44:21;;;;;;;9.97;7.67;;;;;;;-147.65;100.00;57646.63;10523855;28;20048;-78
2023/08/16 07:49:22;;;;;;;20.83;9.65;;;;;;;-147.65;100.00;57646.63;10525725;28;20076;-77
2023/08/16 07:54:23;;;;;;;9.77;7.50;;;;;;;-147.65;100.00;57646.63;10524167;28;20080;-77
2023/08/16 07:59:24;;;;;;;14.85;10.00;;;;;;;-147.65;100.00;57646.63;10525127;28;20047;-80
2023/08/16 08:04:25;;;;;;;11.63;8.13;;;;;;;-147.65;100.00;57646.63;10522028;28;20396;-79
2023/08/16 08:09:26;;;;;;;13.82;9.32;;;;;;;-147.65;100.00;57646.63;10524133;28;20127;-79
2023/08/16 08:14:26;;;;;;;7.87;6.30;;;;;;;-147.65;100.00;57646.63;10502198;28;20384;-79
2023/08/16 08:19:27;;;;;;;10.40;6.27;;;;;;;-147.65;100.00;57646.63;10505339;28;20032;-80
2023/08/16 08:24:27;;;;;;;9.70;6.50;;;;;;;-147.65;100.00;57646.63;10522571;28;20039;-78
2023/08/16 08:29:28;;;;;;;11.03;6.50;;;;;;;-147.65;100.00;57646.63;10524242;28;20387;-78
2023/08/16 08:34:29;;;;;;;18.13;6.33;;;;;;;-147.65;100.00;57646.63;10523386;28;20298;-79
2023/08/16 08:39:30;;;;;;;10.50;6.17;;;;;;;-147.65;100.00;57646.63;10524591;28;20054;-79
2023/08/16 08:44:30;;;;;;;11.43;8.05;;;;;;;-147.65;100.00;57646.63;10522481;28;20123;-80
2023/08/16 08:49:32;;;;;;;10.33;6.70;;;;;;;-147.65;100.00;57646.63;10505777;28;20040;-80
2023/08/16 08:54:33;;;;;;;11.65;9.10;;;;;;;-147.65;100.00;57646.63;10486545;28;20051;-79
2023/08/16 08:59:34;;;;;;;8.93;5.23;;;;;;;-147.65;100.00;57646.63;10515261;28;20044;-80
2023/08/16 09:04:34;;;;;;;9.55;5.85;;;;;;;-147.65;100.00;57646.63;10495149;28;20036;-80
2023/08/16 09:09:35;;;;;;;;;;;;;;;-147.65;100.00;57646.63;10524071;28;20123;-81
2023/08/16 09:14:35;;;;;;;11.27;6.50;;;;;;;-147.65;100.00;57646.63;10519141;28;19920;-81
2023/08/16 09:19:45;;;;;;;;;;;;;;;-147.65;100.00;57646.63;10490003;28;20121;-81
2023/08/16 09:24:45;;;;;;;9.73;6.18;;;;;;;-147.65;100.00;57646.63;10427193;28;20368;-81
2023/08/16 09:29:46;;;;;;;5.88;4.65;;;;;;;-147.65;100.00;57646.63;10447699;28;20053;-81
2023/08/16 09:34:46;;;;;;;6.97;4.03;;;;;;;-147.65;100.00;57646.63;10423188;28;20033;-80
2023/08/16 09:39:58;;;;;;;4.57;2.90;;;;;;;-147.65;100.00;57646.63;10446144;28;20033;-80
2023/08/16 09:44:58;;;;;;;8.82;3.15;;;;;;;-147.65;100.00;57646.63;10424965;28;20036;-80
2023/08/16 09:50:05;;;;;;;6.23;3.20;;;;;;;-147.65;100.00;57646.63;10430051;28;20045;-80
2023/08/16 09:55:07;;;;;;;4.32;2.83;;;;;;;-147.65;100.00;57646.63;10446460;28;20397;-81
2023/08/16 10:00:09;;;;;;;6.50;3.90;;;;;;;-147.65;100.00;57646.63;10438025;28;20115;-79
2023/08/16 10:05:10;;;;;;;5.97;4.13;;;;;;;-147.65;100.00;57646.63;10383241;28;20148;-82
2023/08/16 10:10:11;;;;;;;6.40;4.13;;;;;;;-147.65;100.00;57646.63;10405681;28;20037;-81
2023/08/16 10:15:11;;;;;;;11.73;4.23;;;;;;;-147.65;100.00;57646.63;10402856;28;20041;-82
2023/08/16 10:20:25;;;;;;;9.07;4.23;;;;;;;-147.65;100.00;57646.63;10405291;28;20033;-80
2023/08/16 10:25:28;;;;;;;11.32;2.92;;;;;;;-147.65;100.00;57646.63;10470264;28;20059;-81
2023/08/16 10:30:29;;;;;;;5.68;2.33;;;;;;;-147.65;100.00;57646.63;10460653;28;20076;-83
2023/08/16 10:35:30;;;;;;;6.80;4.10;;;;;;;-147.65;100.00;57646.63;10455139;28;20407;-84
2023/08/16 10:40:30;;;;;;;4.87;3.27;;;;;;;-147.65;100.00;57646.63;10487549;28;20377;-83
2023/08/16 10:45:35;;;;;;;4.03;2.60;;;;;;;-147.65;100.00;57646.63;10486017;28;20036;-83
2023/08/16 10:50:36;;;;;;;5.85;3.20;;;;;;;-147.65;100.00;57646.63;10488786;28;20412;-88
2023/08/16 10:55:36;;;;;;;7.90;3.77;;;;;;;-147.65;100.00;57646.63;10526685;28;20146;-87
2023/08/16 11:00:39;;;;;;;11.70;4.33;;;;;;;-147.65;100.00;57646.63;10527095;28;20115;-87
2023/08/16 11:05:41;;;;;;;6.53;3.28;;;;;;;-147.65;100.00;57646.63;10526925;28;20065;-87
2023/08/16 11:10:42;;;;;;;7.97;3.10;;;;;;;-147.65;100.00;57646.63;10525938;28;20048;-86
2023/08/16 11:15:42;;;;;;;8.10;3.67;;;;;;;-147.65;100.00;57646.63;10522246;28;20047;-85
2023/08/16 11:20:44;;;;;;;5.40;3.20;;;;;;;-147.65;100.00;57646.63;10519483;28;20040;-87
2023/08/16 11:25:45;;;;;;;5.53;3.33;;;;;;;-147.65;100.00;57646.63;10508513;28;20036;-83
2023/08/16 11:30:45;;;;;;;6.68;3.70;;;;;;;-147.65;100.00;57646.63;10524632;28;20539;-84
2023/08/16 11:35:47;;;;;;;3.97;3.27;;;;;;;-147.65;100.00;57646.63;10504047;28;20032;-83
2023/08/16 11:40:47;;;;;;;8.52;3.83;;;;;;;-147.65;100.00;57646.63;10523666;28;20503;-83
2023/08/16 11:45:52;;;;;;;4.33;2.83;;;;;;;-147.65;100.00;57646.63;10525397;28;20134;-87
2023/08/16 11:50:52;;;;;;;4.80;2.95;;;;;;;-147.65;100.00;57646.63;10524440;28;20044;-87
2023/08/16 11:56:00;;;;;;;6.20;2.80;;;;;;;-147.65;100.00;57646.63;10507334;28;20029;-83
2023/08/16 12:01:04;;;;;;;7.03;2.80;;;;;;;-147.65;100.00;57646.63;10520935;28;20388;-83
2023/08/16 12:06:05;;;;;;;6.57;3.17;;;;;;;-147.65;100.00;57646.63;10506324;28;20032;-85
2023/08/16 12:11:06;;;;;;;6.18;2.50;;;;;;;-147.65;100.00;57646.63;10526450;28;20080;-85
2023/08/16 12:16:07;;;;;;;14.17;3.33;;;;;;;-147.65;100.00;57646.63;10524188;28;20032;-85
2023/08/16 12:21:07;;;;;;;10.48;3.53;;;;;;;-147.65;100.00;57646.63;10525552;28;20047;-85
2023/08/16 12:26:08;;;;;;;5.50;3.97;;;;;;;-147.65;100.00;57646.63;10523598;28;20039;-85
2023/08/16 12:31:10;;;;;;;7.03;5.03;;;;;;;-147.65;100.00;57646.63;10513613;28;20070;-85
2023/08/16 12:36:11;;;;;;;8.32;4.75;;;;;;;-147.65;100.00;57646.63;10487878;28;20115;-85
2023/08/16 12:41:11;;;;;;;9.87;3.90;;;;;;;-147.65;100.00;57646.63;10521957;28;20032;-88
2023/08/16 12:46:12;;;;;;;5.43;4.13;;;;;;;-147.65;100.00;57646.63;10515437;28;20488;-85
2023/08/16 12:51:12;;;;;;;6.03;3.80;;;;;;;-147.65;100.00;57646.63;10500738;28;20044;-88
2023/08/16 12:56:13;;;;;;;6.40;5.40;;;;;;;-147.65;100.00;57646.63;10507381;28;20036;-85
2023/08/16 13:01:14;;;;;;;7.97;4.00;;;;;;;-147.65;100.00;57646.63;10522781;28;20267;-86
2023/08/16 13:06:16;;;;;;;6.87;3.83;;;;;;;-147.65;100.00;57646.63;10521669;28;20093;-86
2023/08/16 13:11:16;;;;;;;7.72;5.20;;;;;;;-147.65;100.00;57646.63;10505296;28;20089;-85
2023/08/16 13:16:17;;;;;;;12.43;6.73;;;;;;;-147.65;100.00;57646.63;10505208;28;20093;-87
2023/08/16 13:21:17;;;;;;;7.97;5.93;;;;;;;-147.65;100.00;57646.63;10516274;28;20458;-87
2023/08/16 13:26:18;;;;;;;6.87;4.83;;;;;;;-147.65;100.00;57646.63;10479429;28;20048;-87
2023/08/16 13:31:19;;;;;;;9.83;4.80;;;;;;;-147.65;100.00;57646.63;10502997;28;20039;-87
2023/08/16 13:36:19;;;;;;;8.57;5.77;;;;;;;-147.65;100.00;57646.63;10504533;28;20066;-88
2023/08/16 13:41:20;;;;;;;8.33;5.93;;;;;;;-147.65;100.00;57646.63;10500422;28;20048;-87
2023/08/16 13:46:20;;;;;;;7.13;5.20;;;;;;;-147.65;100.00;57646.63;10501502;28;20051;-83
2023/08/16 13:51:21;;;;;;;8.97;5.20;;;;;;;-147.65;100.00;57646.63;10521471;28;20417;-83
2023/08/16 13:56:21;;;;;;;10.40;5.83;;;;;;;-147.65;100.00;57646.63;10523156;28;20044;-82
2023/08/16 14:01:22;;;;;;;19.87;7.50;;;;;;;-147.65;100.00;57646.63;10526955;28;20036;-83
2023/08/16 14:06:22;;;;;;;11.63;5.30;;;;;;;-147.65;100.00;57646.63;10530246;28;20043;-83
2023/08/16 14:11:23;;;;;;;6.73;5.20;;;;;;;-147.65;100.00;57646.63;10523781;28;20044;-83
2023/08/16 14:16:24;;;;;;;7.43;5.93;;;;;;;-147.65;100.00;57646.63;10513705;28;20404;-84
2023/08/16 14:21:25;;;;;;;10.95;4.78;;;;;;;-147.65;100.00;57646.63;10513870;28;20070;-82
2023/08/16 14:26:25;;;;;;;6.70;4.53;;;;;;;-147.65;100.00;57646.63;10523805;28;20043;-83
2023/08/16 14:31:26;;;;;;;9.23;5.23;;;;;;;-147.65;100.00;57646.63;10498368;28;20070;-82
2023/08/16 14:36:26;;;;;;;8.63;6.10;;;;;;;-147.65;100.00;57646.63;10524729;28;20040;-80
2023/08/16 14:41:27;;;;;;;11.67;5.13;;;;;;;-147.65;100.00;57646.63;10521605;28;20098;-82
2023/08/16 14:46:28;;;;;;;6.60;4.90;;;;;;;-147.65;100.00;57646.63;10522870;28;20048;-79
2023/08/16 14:51:30;;;;;;;9.63;4.70;;;;;;;-147.65;100.00;57646.63;10526434;28;20087;-80
2023/08/16 14:56:30;;;;;;;10.02;5.20;;;;;;;-147.65;100.00;57646.63;10525546;28;20486;-80
2023/08/16 15:01:31;;;;;;;6.63;5.17;;;;;;;-147.65;100.00;57646.63;10525763;28;20036;-80
2023/08/16 15:06:32;;;;;;;7.93;4.83;;;;;;;-147.65;100.00;57646.63;10524709;28;20108;-80
2023/08/16 15:11:32;;;;;;;8.57;4.63;;;;;;;-147.65;100.00;57646.63;10522882;28;20391;-82
2023/08/16 15:16:33;;;;;;;6.73;4.90;;;;;;;-147.65;100.00;57646.63;10523696;28;20407;-81
2023/08/16 15:21:34;;;;;;;8.77;4.47;;;;;;;-147.65;100.00;57646.63;10525436;28;20118;-82
2023/08/16 15:26:35;;;;;;;8.02;4.88;;;;;;;-147.65;100.00;57646.63;10527187;28;20597;-82
2023/08/16 15:31:35;;;;;;;10.20;5.43;;;;;;;-147.65;100.00;57646.63;10527658;28;20129;-82
2023/08/16 15:36:36;;;;;;;7.43;4.57;;;;;;;-147.65;100.00;57646.63;10525253;28;20369;-82
2023/08/16 15:41:36;;;;;;;7.63;4.47;;;;;;;-147.65;100.00;57646.63;10515370;28;20044;-82
2023/08/16 15:46:37;;;;;;;9.47;4.43;;;;;;;-147.65;100.00;57646.63;10523449;28;20092;-82
2023/08/16 15:51:38;;;;;;;6.13;4.30;;;;;;;-147.65;100.00;57646.63;10525560;28;20036;-81
2023/08/16 15:56:38;;;;;;;8.83;4.03;;;;;;;-147.65;100.00;57646.63;10520661;28;20119;-81
2023/08/16 16:01:39;;;;;;;7.93;4.07;;;;;;;-147.65;100.00;57646.63;10526135;28;20090;-81
2023/08/16 16:06:39;;;;;;;9.47;4.57;;;;;;;-147.65;100.00;57646.63;10522674;28;20054;-81
2023/08/16 16:11:40;;;;;;;10.50;3.57;;;;;;;-147.65;100.00;57646.63;10525596;28;20127;-82
2023/08/16 16:16:45;;;;;;;8.13;3.77;;;;;;;-147.65;100.00;57646.63;10525305;28;20056;-82
2023/08/16 16:21:45;;;;;;;8.07;4.18;;;;;;;-147.65;100.00;57646.63;10524223;28;20036;-83
2023/08/16 16:26:46;;;;;;;14.03;4.93;;;;;;;-147.65;100.00;57646.63;10519778;28;20054;-82
2023/08/16 16:31:46;;;;;;;5.07;3.77;;;;;;;-147.65;100.00;57646.63;10525459;28;20044;-81
2023/08/16 16:36:47;;;;;;;6.13;3.87;;;;;;;-147.65;100.00;57646.63;10524304;28;20036;-81
2023/08/16 16:41:47;;;;;;;9.77;4.13;;;;;;;-147.65;100.00;57646.63;10525614;28;20040;-82
2023/08/16 16:46:49;;;;;;;8.07;3.63;;;;;;;-147.65;100.00;57646.63;10523453;28;20048;-81
2023/08/16 16:51:50;;;;;;;7.20;4.47;;;;;;;-147.65;100.00;57646.63;10524116;28;20036;-82
2023/08/16 16:56:51;;;;;;;9.93;6.13;;;;;;;-147.65;100.00;57646.63;10525182;28;20040;-81
2023/08/16 17:01:51;;;;;;;7.57;4.30;;;;;;;-147.65;100.00;57646.63;10522682;28;20129;-81
2023/08/16 17:06:57;;;;;;;7.70;5.30;;;;;;;-147.65;100.00;57646.63;10524959;28;20127;-81
2023/08/16 17:11:57;;;;;;;6.28;4.18;;;;;;;-147.65;100.00;57646.63;10521308;28;20047;-80
2023/08/16 17:16:59;;;;;;;7.70;5.33;;;;;;;-147.65;100.00;57646.63;10520850;28;20097;-80
2023/08/16 17:21:59;;;;;;;8.13;4.10;;;;;;;-147.65;100.00;57646.63;10521044;28;20047;-82
2023/08/16 17:27:00;;;;;;;9.30;6.07;;;;;;;-147.65;100.00;57646.63;10522733;28;20047;-82
2023/08/16 17:32:01;;;;;;;10.73;7.93;;;;;;;-147.65;100.00;57646.63;10523088;28;20036;-81
2023/08/16 17:37:02;;;;;;;12.07;6.43;;;;;;;-147.65;100.00;57646.63;10526527;28;20119;-83
2023/08/16 17:42:03;;;;;;;85.60;15.50;;;;;;;-147.65;100.00;57646.63;10531840;28;20127;-81
2023/08/16 17:47:04;;;;;;;12.13;6.37;;;;;;;-147.65;100.00;57646.63;10527896;28;20400;-82
2023/08/16 17:52:05;;;;;;;13.25;7.40;;;;;;;-147.65;100.00;57646.63;10529284;28;20921;-82
2023/08/16 17:57:05;;;;;;;10.87;6.50;;;;;;;-147.65;100.00;57646.63;10529226;28;20105;-82
2023/08/16 18:02:06;;;;;;;14.27;5.73;;;;;;;-147.65;100.00;57646.63;10532156;28;20142;-82
2023/08/16 18:07:07;;;;;;;9.17;5.23;;;;;;;-147.65;100.00;57646.63;10530714;28;20499;-82
2023/08/16 18:12:08;;;;;;;10.47;5.70;;;;;;;-147.65;100.00;57646.63;10529336;28;20040;-83
2023/08/16 18:17:09;;;;;;;9.55;5.50;;;;;;;-147.65;100.00;57646.63;10529937;28;20040;-82
2023/08/16 18:22:09;;;;;;;9.47;5.97;;;;;;;-147.65;100.00;57646.63;10526298;28;20483;-82
2023/08/16 18:27:10;;;;;;;8.80;5.17;;;;;;;-147.65;100.00;57646.63;10525287;27;20047;-82
2023/08/16 18:32:11;;;;;;;8.97;5.20;;;;;;;-147.65;100.00;57646.63;10520543;28;20044;-81
2023/08/16 18:37:11;;;;;;;9.73;4.17;;;;;;;-147.65;100.00;57646.63;10529894;28;20122;-80
2023/08/16 18:42:12;;;;;;;12.80;5.20;;;;;;;-147.65;100.00;57646.63;10519393;28;20115;-81
2023/08/16 18:47:12;;;;;;;6.35;4.15;;;;;;;-147.65;100.00;57646.63;10525228;28;20085;-85
2023/08/16 18:52:13;;;;;;;7.67;4.90;;;;;;;-147.65;100.00;57646.63;10477151;28;20036;-79
2023/08/16 18:57:13;;;;;;;14.17;3.77;;;;;;;-147.65;100.00;57646.63;10535922;28;20048;-80
2023/08/16 19:02:15;;;;;;;7.43;4.37;;;;;;;-147.65;100.00;57646.63;10526493;27;20042;-80
2023/08/16 19:07:15;;;;;;;8.60;3.78;;;;;;;-147.65;100.00;57646.63;10519675;27;20061;-80
2023/08/16 19:12:16;;;;;;;10.15;4.38;;;;;;;-147.65;100.00;57646.63;10533784;27;20118;-80
2023/08/16 19:17:16;;;;;;;8.63;3.63;;;;;;;-147.65;100.00;57646.63;10539747;27;20433;-80
2023/08/16 19:22:17;;;;;;;4.45;2.92;;;;;;;-147.65;100.00;57646.63;10538825;28;20067;-80
2023/08/16 19:27:17;;;;;;;8.20;3.50;;;;;;;-147.65;100.00;57646.63;10538520;27;20039;-80
2023/08/16 19:32:18;;;;;;;6.50;3.57;;;;;;;-147.65;100.00;57646.63;10531393;28;20472;-79
2023/08/16 19:37:19;;;;;;;7.10;3.70;;;;;;;-147.65;100.00;57646.63;10509168;28;20031;-79
2023/08/16 19:42:19;;;;;;;6.32;4.68;;;;;;;-147.65;100.00;57646.63;10534822;28;20085;-78
2023/08/16 19:47:20;;;;;;;7.50;4.53;;;;;;;-147.65;100.00;57646.63;10526459;28;20080;-79
2023/08/16 19:52:21;;;;;;;5.72;4.05;;;;;;;-147.65;100.00;57646.63;10504606;28;20111;-80
2023/08/16 19:57:21;;;;;;;5.80;4.53;;;;;;;-147.65;100.00;57646.63;10524899;28;20530;-80
2023/08/16 20:02:22;;;;;;;10.63;4.30;;;;;;;-147.65;100.00;57646.63;10524509;28;20036;-79
2023/08/16 20:07:22;;;;;;;5.90;4.25;;;;;;;-147.65;100.00;57646.63;10524707;28;20403;-81
2023/08/16 20:12:23;;;;;;;7.97;4.47;;;;;;;-147.65;100.00;57646.63;10526279;28;20043;-80
2023/08/16 20:17:24;;;;;;;9.35;4.13;;;;;;;-147.65;100.00;57646.63;10507540;28;20088;-81
2023/08/16 20:22:25;;;;;;;6.65;4.65;;;;;;;-147.65;100.00;57646.63;10506048;28;20046;-80
2023/08/16 20:27:26;;;;;;;5.40;4.13;;;;;;;-147.65;100.00;57646.63;10522906;28;20510;-83
2023/08/16 20:32:27;;;;;;;9.00;4.40;;;;;;;-147.65;100.00;57646.63;10507007;28;20541;-83
2023/08/16 20:37:28;;;;;;;6.03;3.55;;;;;;;-147.65;100.00;57646.63;10523991;28;20047;-83
2023/08/16 20:42:33;;;;;;;10.02;4.72;;;;;;;-147.65;100.00;57646.63;10497304;28;20396;-82
2023/08/16 20:47:34;;;;;;;7.55;4.00;;;;;;;-147.65;100.00;57646.63;10523143;28;20392;-81
2023/08/16 20:52:35;;;;;;;6.87;4.00;;;;;;;-147.65;100.00;57646.63;10506826;28;20036;-81
2023/08/16 20:57:35;;;;;;;5.25;4.03;;;;;;;-147.65;100.00;57646.63;10524185;28;20286;-81
2023/08/16 21:02:36;;;;;;;6.20;4.03;;;;;;;-147.65;100.00;57646.63;10524393;28;20081;-79
2023/08/16 21:07:36;;;;;;;7.45;4.10;;;;;;;-147.65;100.00;57646.63;10525640;28;20044;-82
2023/08/16 21:12:37;;;;;;;8.63;4.60;;;;;;;-147.65;100.00;57646.63;10531979;28;20422;-81
2023/08/16 21:17:37;;;;;;;5.85;3.80;;;;;;;-147.65;100.00;57646.63;10533332;28;20138;-80
2023/08/16 21:22:38;;;;;;;6.75;4.80;;;;;;;-147.65;100.00;57646.63;10533310;28;20032;-81
2023/08/16 21:27:38;;;;;;;8.38;4.18;;;;;;;-147.65;100.00;57646.63;10530783;28;20032;-81
2023/08/16 21:32:39;;;;;;;10.23;6.57;;;;;;;-147.65;100.00;57646.63;10530433;28;20040;-81
2023/08/16 21:37:39;;;;;;;9.38;5.78;;;;;;;-147.65;100.00;57646.63;10530797;28;20042;-81
2023/08/16 21:42:40;;;;;;;19.20;6.13;;;;;;;-147.65;100.00;57646.63;10529833;28;20115;-81
2023/08/16 21:47:41;;;;;;;14.77;6.15;;;;;;;-147.65;100.00;57646.63;10529405;28;20129;-82
2023/08/16 21:52:42;;;;;;;8.02;4.65;;;;;;;-147.65;100.00;57646.63;10530854;28;20036;-81
2023/08/16 21:57:43;;;;;;;9.25;5.13;;;;;;;-147.65;100.00;57646.63;10513199;28;20040;-80
2023/08/16 22:02:43;;;;;;;8.55;5.43;;;;;;;-147.65;100.00;57646.63;10529854;28;20077;-81
2023/08/16 22:07:44;;;;;;;11.00;4.63;;;;;;;-147.65;100.00;57646.63;10472019;28;20040;-81
2023/08/16 22:12:45;;;;;;;5.85;3.30;;;;;;;-147.65;100.00;57646.63;10498741;28;20111;-81
2023/08/16 22:17:45;;;;;;;8.65;4.95;;;;;;;-147.65;100.00;57646.63;10530110;28;20036;-81
2023/08/16 22:22:46;;;;;;;5.90;3.47;;;;;;;-147.65;100.00;57646.63;10530482;28;20544;-81
2023/08/16 22:27:47;;;;;;;8.15;5.00;;;;;;;-147.65;100.00;57646.63;10526777;28;20048;-81